Surrency, Georgia
Current Conditions -  °F | °C
As of 11:15 PM on Wednesday 26 Nov 2014 (Local Time) from KBHC Reporting Station
Clear Clear  
Wind Chill: 48°   Ceiling: Unl
Heat Index: 48°   Visibility: 10mi
Dew Point: 34°   Wind: 3mph
Humidity: 57%   Direction: 240°WSW
Pressure: 30.17"   Gusts: NA
Location:  31.72°N, 82.2°W
Report Text: KBHC 270415Z AUTO 24003KT 10SM CLR 09/01 A3017 RMK AO2
Loading
Personal Weather Stations






























Interactive Weather Map New forecast layout! Learn more

10-Day Weather Forecast

Advertisements
Track Severe Weather on mobile